This is the latest recevied weather packets stored in our database for station/object K5RWS. If no packets are shown the sender has not sent any weather packets the latest 1 day(s).
| Time | Temp. | Humidity | Pressure | Rain* | Wind** | Luminosity | Snow |
|---|---|---|---|---|---|---|---|
| 1778075910 | 10° C | 53% | 1017.9 hPa | 0 mm | - | 255 W/m² | - |
| 1778075303 | 10° C | 55% | 1018.1 hPa | 0 mm | - | 231 W/m² | - |
| 1778074090 | 8.89° C | 59% | 1018.1 hPa | 0 mm | - | 124 W/m² | - |
| 1778072878 | 8.33° C | 62% | 1017.9 hPa | 0 mm | - | 71 W/m² | - |
| 1778072273 | 6.67° C | 66% | 1017.5 hPa | 0 mm | - | 42 W/m² | - |
| 1778070762 | 6.67° C | 66% | 1017.3 hPa | 0 mm | - | 14 W/m² | - |
| 1778069550 | 5.56° C | 69% | 1017.2 hPa | 0 mm | - | 3 W/m² | - |
| 1778068643 | 3.89° C | 74% | 1016.9 hPa | 0 mm | - | 0 W/m² | - |
| 1778068341 | 3.89° C | 74% | 1016.8 hPa | 0 mm | - | 0 W/m² | - |
| 1778068038 | 4.44° C | 73% | 1017 hPa | 0 mm | - | 0 W/m² | - |
| 1778067434 | 5° C | 73% | 1016.6 hPa | 0 mm | - | 0 W/m² | - |
| 1778067131 | 5° C | 72% | 1016.8 hPa | 0 mm | - | 0 W/m² | - |
| 1778066525 | 4.44° C | 73% | 1016.8 hPa | 0 mm | - | 0 W/m² | - |
| 1778065920 | 4.44° C | 73% | 1016.7 hPa | 0 mm | - | 0 W/m² | - |
| 1778065617 | 4.44° C | 74% | 1016.6 hPa | 0 mm | - | 0 W/m² | - |
| 1778065011 | 3.89° C | 74% | 1016.4 hPa | 0 mm | - | 0 W/m² | - |
| 1778064708 | 4.44° C | 73% | 1016.4 hPa | 0 mm | - | 0 W/m² | - |
| 1778064406 | 4.44° C | 73% | 1016.6 hPa | 0 mm | - | 0 W/m² | - |
| 1778063800 | 5° C | 70% | 1016.6 hPa | 0 mm | - | 0 W/m² | - |
| 1778062589 | 6.11° C | 69% | 1016.4 hPa | 0 mm | - | 0 W/m² | - |
| 1778061682 | 5° C | 73% | 1016.3 hPa | 0 mm | - | 0 W/m² | - |
| 1778061381 | 5° C | 72% | 1016.3 hPa | 0 mm | - | 0 W/m² | - |
| 1778061077 | 5.56° C | 71% | 1016.3 hPa | 0 mm | - | 0 W/m² | - |
| 1778060472 | 6.11° C | 69% | 1016.2 hPa | 0 mm | - | 0 W/m² | - |
| 1778059565 | 6.11° C | 70% | 1016.1 hPa | 0 mm | - | 0 W/m² | - |
* Rain latest hour (hover to see other rain measurements)
** Current wind speed in m/s (hover to see current wind gust speed)